Oswego Center, New York
Current Conditions -  °F | °C
As of 10:54 AM on Sunday 25 Jan 2015 (Local Time) from KFZY Reporting Station
Broken Clouds Broken Clouds  
Wind Chill:   Ceiling: 1700
Heat Index: 16°   Visibility: 9mi
Dew Point:   Wind: 8mph
Humidity: 62%   Direction: 350°N
Pressure: 29.9"   Gusts: NA
Location:  43.4571°N, 76.4163°W
Report Text: KFZY 251554Z AUTO 35007KT 9SM BKN017 BKN022 M09/M15 A2990 RMK AO2 UPB1457E03B52E54SNB03E52 SLP131 P0000 T10891150
Loading
Personal Weather Stations






























Interactive Weather Map New forecast layout! Learn more

10-Day Weather Forecast

Advertisements
Track Severe Weather on mobile